Terminal Aerodrome Forecast
Issued by NWS

Home | Current Version | Previous Version | Text Only | Print | Product List | Glossary On
Versions: 1 2 3 4 5 6 7 8 9 10 11 12 13 14 15 16 17 18
000
FTUS42 KFFC 162300
TAFRYY
TAF
KRYY 162328Z 1700/1724 33005KT P6SM SCT250
     FM170900 34003KT 5SM BR FEW250
     FM171500 33005KT P6SM FEW040 FEW250
      AMD NOT SKED 1704/1712=

USA.gov is the U.S. government's official web portal to all federal, state and local government web resources and services.